sensor_id;sensor_type;location;lat;lon;timestamp;pressure;altitude;pressure_sealevel;temperature;humidity
14790;BME280;7486;51.010;10.366;2023-05-24T00:02:35;98612.06;;;4.83;69.74
14790;BME280;7486;51.010;10.366;2023-05-24T00:05:20;98711.56;;;5.44;70.55
14790;BME280;7486;51.010;10.366;2023-05-24T00:08:06;98466.41;;;3.97;69.85
14790;BME280;7486;51.010;10.366;2023-05-24T00:10:52;98685.75;;;5.24;69.96
14790;BME280;7486;51.010;10.366;2023-05-24T00:13:37;98748.53;;;5.59;70.68
14790;BME280;7486;51.010;10.366;2023-05-24T00:16:23;98687.69;;;5.22;69.92
14790;BME280;7486;51.010;10.366;2023-05-24T00:19:08;98670.41;;;5.11;70.16
14790;BME280;7486;51.010;10.366;2023-05-24T00:21:54;98507.09;;;4.09;69.36
14790;BME280;7486;51.010;10.366;2023-05-24T00:24:39;98724.31;;;5.31;69.96
14790;BME280;7486;51.010;10.366;2023-05-24T00:27:24;98695.56;;;5.22;69.79
14790;BME280;7486;51.010;10.366;2023-05-24T00:30:10;98641.28;;;4.80;69.17
14790;BME280;7486;51.010;10.366;2023-05-24T00:32:56;98734.22;;;5.37;70.54
14790;BME280;7486;51.010;10.366;2023-05-24T00:35:41;98688.78;;;5.11;69.54
14790;BME280;7486;51.010;10.366;2023-05-24T00:38:27;98772.84;;;5.61;70.04
14790;BME280;7486;51.010;10.366;2023-05-24T00:41:13;98782.53;;;5.60;70.22
14790;BME280;7486;51.010;10.366;2023-05-24T00:43:58;98736.47;;;5.32;70.33
14790;BME280;7486;51.010;10.366;2023-05-24T00:46:46;98783.88;;;5.64;70.30
14790;BME280;7486;51.010;10.366;2023-05-24T00:49:33;98720.69;;;5.24;70.54
14790;BME280;7486;51.010;10.366;2023-05-24T00:52:19;98636.94;;;4.55;70.31
14790;BME280;7486;51.010;10.366;2023-05-24T00:55:06;98738.13;;;5.33;70.83
14790;BME280;7486;51.010;10.366;2023-05-24T00:57:52;98641.41;;;4.71;70.77
14790;BME280;7486;51.010;10.366;2023-05-24T01:00:40;98617.53;;;4.48;69.81
14790;BME280;7486;51.010;10.366;2023-05-24T01:03:27;98539.69;;;3.81;69.77
14790;BME280;7486;51.010;10.366;2023-05-24T01:06:13;98791.91;;;5.21;70.78
14790;BME280;7486;51.010;10.366;2023-05-24T01:18:04;98793.75;;;4.95;71.76
14790;BME280;7486;51.010;10.366;2023-05-24T01:21:00;98522.34;;;3.28;71.84
14790;BME280;7486;51.010;10.366;2023-05-24T01:27:10;98726.00;;;4.64;72.41
14790;BME280;7486;51.010;10.366;2023-05-24T01:29:58;98796.09;;;5.06;72.83
14790;BME280;7486;51.010;10.366;2023-05-24T01:32:44;98696.13;;;4.57;73.28
14790;BME280;7486;51.010;10.366;2023-05-24T01:35:30;98338.50;;;2.39;72.66
14790;BME280;7486;51.010;10.366;2023-05-24T01:38:15;98694.97;;;4.52;72.75
14790;BME280;7486;51.010;10.366;2023-05-24T01:41:14;98779.47;;;5.23;72.79
14790;BME280;7486;51.010;10.366;2023-05-24T01:44:11;98556.63;;;3.94;72.82
14790;BME280;7486;51.010;10.366;2023-05-24T01:47:23;98775.75;;;5.08;71.76
14790;BME280;7486;51.010;10.366;2023-05-24T01:50:32;98711.94;;;4.74;72.37
14790;BME280;7486;51.010;10.366;2023-05-24T01:53:19;98630.22;;;4.27;71.58
14790;BME280;7486;51.010;10.366;2023-05-24T01:56:07;98503.81;;;3.47;70.64
14790;BME280;7486;51.010;10.366;2023-05-24T01:58:55;98673.66;;;4.55;70.89
14790;BME280;7486;51.010;10.366;2023-05-24T02:01:42;98481.31;;;3.37;71.25
14790;BME280;7486;51.010;10.366;2023-05-24T02:04:27;98674.16;;;4.58;71.00
14790;BME280;7486;51.010;10.366;2023-05-24T02:07:13;98687.63;;;4.63;70.90
14790;BME280;7486;51.010;10.366;2023-05-24T02:09:59;98582.53;;;3.97;70.28
14790;BME280;7486;51.010;10.366;2023-05-24T02:12:44;98742.06;;;4.61;71.71
14790;BME280;7486;51.010;10.366;2023-05-24T02:15:30;98624.47;;;3.72;72.53
14790;BME280;7486;51.010;10.366;2023-05-24T02:18:16;98579.16;;;3.36;72.34
14790;BME280;7486;51.010;10.366;2023-05-24T02:21:01;98650.72;;;3.80;73.21
14790;BME280;7486;51.010;10.366;2023-05-24T02:23:47;98701.91;;;3.92;73.90
14790;BME280;7486;51.010;10.366;2023-05-24T02:26:33;98578.94;;;3.29;73.19
14790;BME280;7486;51.010;10.366;2023-05-24T02:29:18;98665.59;;;3.97;72.84
14790;BME280;7486;51.010;10.366;2023-05-24T02:32:04;98753.47;;;4.52;72.68
14790;BME280;7486;51.010;10.366;2023-05-24T02:34:49;98216.44;;;1.35;71.92
14790;BME280;7486;51.010;10.366;2023-05-24T02:37:35;98612.50;;;3.95;72.16
14790;BME280;7486;51.010;10.366;2023-05-24T02:40:20;98732.91;;;4.65;71.95
14790;BME280;7486;51.010;10.366;2023-05-24T02:43:05;98586.50;;;3.76;72.32
14790;BME280;7486;51.010;10.366;2023-05-24T02:45:51;98665.69;;;4.13;72.43
14790;BME280;7486;51.010;10.366;2023-05-24T02:48:36;98680.25;;;4.33;72.16
14790;BME280;7486;51.010;10.366;2023-05-24T02:51:21;98651.13;;;4.10;71.87
14790;BME280;7486;51.010;10.366;2023-05-24T02:54:07;98542.13;;;3.48;71.41
14790;BME280;7486;51.010;10.366;2023-05-24T02:56:52;98611.88;;;3.75;71.38
14790;BME280;7486;51.010;10.366;2023-05-24T02:59:38;98624.53;;;3.80;71.66
14790;BME280;7486;51.010;10.366;2023-05-24T03:02:24;98663.91;;;4.13;71.38
14790;BME280;7486;51.010;10.366;2023-05-24T03:05:09;98757.38;;;4.74;71.72
14790;BME280;7486;51.010;10.366;2023-05-24T03:07:56;98708.44;;;4.31;70.86
14790;BME280;7486;51.010;10.366;2023-05-24T03:10:42;98731.41;;;4.37;71.40
14790;BME280;7486;51.010;10.366;2023-05-24T03:13:29;98605.94;;;3.47;71.19
14790;BME280;7486;51.010;10.366;2023-05-24T03:16:15;98635.56;;;3.65;71.33
14790;BME280;7486;51.010;10.366;2023-05-24T03:19:00;98768.84;;;4.47;71.58
14790;BME280;7486;51.010;10.366;2023-05-24T03:21:46;98720.44;;;4.16;71.67
14790;BME280;7486;51.010;10.366;2023-05-24T03:24:31;98574.59;;;3.20;71.93
14790;BME280;7486;51.010;10.366;2023-05-24T03:27:17;98758.25;;;4.31;72.07
14790;BME280;7486;51.010;10.366;2023-05-24T03:30:03;98683.44;;;3.76;72.61
14790;BME280;7486;51.010;10.366;2023-05-24T03:32:54;98577.72;;;2.88;73.54
14790;BME280;7486;51.010;10.366;2023-05-24T03:35:39;98593.03;;;3.28;73.53
14790;BME280;7486;51.010;10.366;2023-05-24T03:38:26;98577.44;;;3.09;73.23
14790;BME280;7486;51.010;10.366;2023-05-24T03:41:11;98764.53;;;4.38;74.01
14790;BME280;7486;51.010;10.366;2023-05-24T03:43:58;98663.63;;;3.73;73.09
14790;BME280;7486;51.010;10.366;2023-05-24T03:46:45;98683.59;;;3.74;74.00
14790;BME280;7486;51.010;10.366;2023-05-24T03:49:30;98698.78;;;3.88;73.08
14790;BME280;7486;51.010;10.366;2023-05-24T03:52:16;98723.78;;;4.00;74.05
14790;BME280;7486;51.010;10.366;2023-05-24T03:55:01;98702.00;;;3.82;73.13
14790;BME280;7486;51.010;10.366;2023-05-24T03:57:46;98691.53;;;3.64;74.76
14790;BME280;7486;51.010;10.366;2023-05-24T04:00:32;98594.59;;;3.39;74.95
14790;BME280;7486;51.010;10.366;2023-05-24T04:03:19;98709.22;;;4.32;75.02
14790;BME280;7486;51.010;10.366;2023-05-24T04:06:05;98781.78;;;5.00;73.79
14790;BME280;7486;51.010;10.366;2023-05-24T04:08:51;98747.47;;;4.94;72.69
14790;BME280;7486;51.010;10.366;2023-05-24T04:11:36;98708.91;;;4.60;72.63
14790;BME280;7486;51.010;10.366;2023-05-24T04:14:22;98593.72;;;4.33;72.58
14790;BME280;7486;51.010;10.366;2023-05-24T04:17:07;98615.84;;;4.39;72.13
14790;BME280;7486;51.010;10.366;2023-05-24T04:19:54;98487.53;;;3.61;72.92
14790;BME280;7486;51.010;10.366;2023-05-24T04:22:39;98611.78;;;4.44;72.02
14790;BME280;7486;51.010;10.366;2023-05-24T04:25:25;98677.88;;;4.90;71.37
14790;BME280;7486;51.010;10.366;2023-05-24T04:28:11;98570.06;;;4.25;72.54
14790;BME280;7486;51.010;10.366;2023-05-24T04:30:57;98745.06;;;5.58;72.80
14790;BME280;7486;51.010;10.366;2023-05-24T04:33:42;98711.53;;;5.36;71.59
14790;BME280;7486;51.010;10.366;2023-05-24T04:36:28;98634.16;;;5.06;71.48
14790;BME280;7486;51.010;10.366;2023-05-24T04:39:13;98699.09;;;5.46;71.79
14790;BME280;7486;51.010;10.366;2023-05-24T04:41:58;98748.06;;;5.72;72.92
14790;BME280;7486;51.010;10.366;2023-05-24T04:44:43;98715.88;;;5.78;73.02
14790;BME280;7486;51.010;10.366;2023-05-24T04:47:29;98571.28;;;5.05;72.45
14790;BME280;7486;51.010;10.366;2023-05-24T04:50:15;98761.22;;;6.04;71.09
14790;BME280;7486;51.010;10.366;2023-05-24T04:53:00;98793.97;;;6.26;70.75
14790;BME280;7486;51.010;10.366;2023-05-24T04:55:46;98784.75;;;6.05;72.19
14790;BME280;7486;51.010;10.366;2023-05-24T04:58:32;98675.41;;;5.38;71.56
14790;BME280;7486;51.010;10.366;2023-05-24T05:01:18;98774.06;;;5.91;71.57
14790;BME280;7486;51.010;10.366;2023-05-24T05:04:04;98621.53;;;5.18;71.57
14790;BME280;7486;51.010;10.366;2023-05-24T05:06:50;98701.91;;;5.93;71.45
14790;BME280;7486;51.010;10.366;2023-05-24T05:09:36;98764.84;;;6.43;70.85
14790;BME280;7486;51.010;10.366;2023-05-24T05:12:21;98705.66;;;6.31;72.32
14790;BME280;7486;51.010;10.366;2023-05-24T05:15:07;98757.53;;;6.86;70.58
14790;BME280;7486;51.010;10.366;2023-05-24T05:17:53;98772.19;;;6.88;68.90
14790;BME280;7486;51.010;10.366;2023-05-24T05:20:40;98741.13;;;6.51;68.60
14790;BME280;7486;51.010;10.366;2023-05-24T05:23:26;98721.13;;;6.18;68.51
14790;BME280;7486;51.010;10.366;2023-05-24T05:26:12;98575.94;;;5.27;68.42
14790;BME280;7486;51.010;10.366;2023-05-24T05:28:57;98668.88;;;5.50;70.17
14790;BME280;7486;51.010;10.366;2023-05-24T05:31:42;98564.88;;;4.91;69.45
14790;BME280;7486;51.010;10.366;2023-05-24T05:34:28;98556.66;;;4.78;71.44
14790;BME280;7486;51.010;10.366;2023-05-24T05:37:13;98747.91;;;5.81;70.82
14790;BME280;7486;51.010;10.366;2023-05-24T05:39:58;98733.25;;;5.54;69.77
14790;BME280;7486;51.010;10.366;2023-05-24T05:42:43;98769.44;;;6.01;70.40
14790;BME280;7486;51.010;10.366;2023-05-24T05:45:29;98806.44;;;6.32;68.89
14790;BME280;7486;51.010;10.366;2023-05-24T05:48:15;98549.44;;;4.30;67.85
14790;BME280;7486;51.010;10.366;2023-05-24T05:51:00;98760.25;;;5.97;70.19
14790;BME280;7486;51.010;10.366;2023-05-24T05:53:46;98605.59;;;5.11;68.94
14790;BME280;7486;51.010;10.366;2023-05-24T05:56:31;98783.59;;;6.40;68.29
14790;BME280;7486;51.010;10.366;2023-05-24T05:59:16;98694.19;;;5.84;67.84
14790;BME280;7486;51.010;10.366;2023-05-24T06:02:03;98754.00;;;6.22;69.27
14790;BME280;7486;51.010;10.366;2023-05-24T06:04:49;98744.31;;;6.14;68.54
14790;BME280;7486;51.010;10.366;2023-05-24T06:07:34;98536.50;;;5.03;69.19
14790;BME280;7486;51.010;10.366;2023-05-24T06:10:19;98775.53;;;6.50;69.45
14790;BME280;7486;51.010;10.366;2023-05-24T06:13:05;98729.66;;;6.20;67.65
14790;BME280;7486;51.010;10.366;2023-05-24T06:15:50;98713.75;;;6.05;66.62
14790;BME280;7486;51.010;10.366;2023-05-24T06:18:36;98633.97;;;5.00;67.40
14790;BME280;7486;51.010;10.366;2023-05-24T06:21:21;98761.53;;;5.93;68.98
14790;BME280;7486;51.010;10.366;2023-05-24T06:24:07;98774.38;;;6.04;68.50
14790;BME280;7486;51.010;10.366;2023-05-24T06:26:52;98833.59;;;6.48;68.85
14790;BME280;7486;51.010;10.366;2023-05-24T06:29:37;98662.63;;;5.51;67.55
14790;BME280;7486;51.010;10.366;2023-05-24T06:32:23;98725.19;;;5.56;67.92
14790;BME280;7486;51.010;10.366;2023-05-24T06:35:09;98621.09;;;4.81;68.14
14790;BME280;7486;51.010;10.366;2023-05-24T06:37:54;98643.38;;;4.77;67.99
14790;BME280;7486;51.010;10.366;2023-05-24T06:40:40;98771.06;;;5.78;68.58
14790;BME280;7486;51.010;10.366;2023-05-24T06:43:25;98772.06;;;5.77;66.61
14790;BME280;7486;51.010;10.366;2023-05-24T06:46:11;98687.28;;;5.50;65.23
14790;BME280;7486;51.010;10.366;2023-05-24T06:48:56;98649.22;;;5.04;66.50
14790;BME280;7486;51.010;10.366;2023-05-24T06:51:43;98633.56;;;5.45;64.78
14790;BME280;7486;51.010;10.366;2023-05-24T06:54:29;98702.56;;;5.71;65.36
14790;BME280;7486;51.010;10.366;2023-05-24T06:57:14;98698.16;;;5.96;63.66
14790;BME280;7486;51.010;10.366;2023-05-24T06:59:59;98866.66;;;6.59;64.36
14790;BME280;7486;51.010;10.366;2023-05-24T07:02:45;98871.22;;;6.16;66.18
14790;BME280;7486;51.010;10.366;2023-05-24T07:05:32;98727.41;;;5.18;66.86
14790;BME280;7486;51.010;10.366;2023-05-24T07:08:17;98824.72;;;5.59;67.29
14790;BME280;7486;51.010;10.366;2023-05-24T07:11:02;98840.94;;;5.96;67.17
14790;BME280;7486;51.010;10.366;2023-05-24T07:13:47;98772.38;;;5.74;67.42
14790;BME280;7486;51.010;10.366;2023-05-24T07:16:33;98786.53;;;6.13;68.57
14790;BME280;7486;51.010;10.366;2023-05-24T07:19:19;98769.28;;;6.43;67.19
14790;BME280;7486;51.010;10.366;2023-05-24T07:22:04;98789.97;;;6.62;65.65
14790;BME280;7486;51.010;10.366;2023-05-24T07:24:50;98822.03;;;6.98;65.58
14790;BME280;7486;51.010;10.366;2023-05-24T07:27:35;98817.75;;;6.97;64.37
14790;BME280;7486;51.010;10.366;2023-05-24T07:30:21;98849.81;;;7.16;64.87
14790;BME280;7486;51.010;10.366;2023-05-24T07:33:26;98768.75;;;6.72;66.15
14790;BME280;7486;51.010;10.366;2023-05-24T07:36:12;98874.47;;;7.70;66.51
14790;BME280;7486;51.010;10.366;2023-05-24T07:38:57;98829.72;;;7.62;63.50
14790;BME280;7486;51.010;10.366;2023-05-24T07:41:43;98808.81;;;7.14;63.32
14790;BME280;7486;51.010;10.366;2023-05-24T07:44:28;98846.09;;;7.50;65.92
14790;BME280;7486;51.010;10.366;2023-05-24T07:47:14;98767.03;;;7.42;63.88
14790;BME280;7486;51.010;10.366;2023-05-24T07:49:59;98770.38;;;7.36;63.42
14790;BME280;7486;51.010;10.366;2023-05-24T07:52:45;98838.97;;;7.50;63.47
14790;BME280;7486;51.010;10.366;2023-05-24T07:55:30;98837.69;;;7.46;62.73
14790;BME280;7486;51.010;10.366;2023-05-24T07:58:16;98606.66;;;6.38;60.86
14790;BME280;7486;51.010;10.366;2023-05-24T08:01:01;98784.16;;;7.07;63.73
14790;BME280;7486;51.010;10.366;2023-05-24T08:03:46;98853.34;;;7.79;63.57
14790;BME280;7486;51.010;10.366;2023-05-24T08:06:32;98795.69;;;7.76;63.38
14790;BME280;7486;51.010;10.366;2023-05-24T08:09:17;98623.19;;;7.02;63.13
14790;BME280;7486;51.010;10.366;2023-05-24T08:12:05;98819.00;;;8.63;60.70
14790;BME280;7486;51.010;10.366;2023-05-24T08:14:51;98744.56;;;7.54;60.99
14790;BME280;7486;51.010;10.366;2023-05-24T08:17:37;98761.91;;;7.71;61.36
14790;BME280;7486;51.010;10.366;2023-05-24T08:20:24;98850.63;;;7.95;63.05
14790;BME280;7486;51.010;10.366;2023-05-24T08:23:10;98641.25;;;6.19;62.82
14790;BME280;7486;51.010;10.366;2023-05-24T08:25:56;98741.75;;;7.25;64.01
14790;BME280;7486;51.010;10.366;2023-05-24T08:28:42;98716.47;;;7.46;61.90
14790;BME280;7486;51.010;10.366;2023-05-24T08:31:28;98769.31;;;7.76;63.76
14790;BME280;7486;51.010;10.366;2023-05-24T08:34:14;98780.84;;;8.28;63.08
14790;BME280;7486;51.010;10.366;2023-05-24T08:36:59;98804.50;;;8.73;61.13
14790;BME280;7486;51.010;10.366;2023-05-24T08:39:45;98735.13;;;8.80;57.05
14790;BME280;7486;51.010;10.366;2023-05-24T08:42:30;98722.47;;;8.75;55.92
14790;BME280;7486;51.010;10.366;2023-05-24T08:45:16;98796.69;;;8.65;55.93
14790;BME280;7486;51.010;10.366;2023-05-24T08:48:04;98871.56;;;9.39;54.41
14790;BME280;7486;51.010;10.366;2023-05-24T08:50:50;98875.41;;;9.51;54.57
14790;BME280;7486;51.010;10.366;2023-05-24T08:53:37;98835.78;;;8.85;56.49
14790;BME280;7486;51.010;10.366;2023-05-24T08:56:24;98881.25;;;8.57;57.98
14790;BME280;7486;51.010;10.366;2023-05-24T08:59:10;98619.59;;;6.48;59.62
14790;BME280;7486;51.010;10.366;2023-05-24T09:01:56;98857.66;;;8.10;58.75
14790;BME280;7486;51.010;10.366;2023-05-24T09:04:43;98696.41;;;7.37;57.14
14790;BME280;7486;51.010;10.366;2023-05-24T09:07:31;98862.50;;;8.52;59.53
14790;BME280;7486;51.010;10.366;2023-05-24T09:10:19;98867.16;;;9.17;56.15
14790;BME280;7486;51.010;10.366;2023-05-24T09:13:06;98645.31;;;7.84;52.45
14790;BME280;7486;51.010;10.366;2023-05-24T09:15:52;98841.72;;;9.01;54.67
14790;BME280;7486;51.010;10.366;2023-05-24T09:18:39;98865.53;;;8.41;55.96
14790;BME280;7486;51.010;10.366;2023-05-24T09:21:25;98766.59;;;7.61;53.84
14790;BME280;7486;51.010;10.366;2023-05-24T09:24:11;98697.09;;;7.31;55.03
14790;BME280;7486;51.010;10.366;2023-05-24T09:27:04;98870.47;;;8.82;54.42
14790;BME280;7486;51.010;10.366;2023-05-24T09:29:49;98771.66;;;7.70;54.52
14790;BME280;7486;51.010;10.366;2023-05-24T09:32:35;98871.81;;;8.40;54.60
14790;BME280;7486;51.010;10.366;2023-05-24T09:35:21;98873.00;;;8.75;51.67
14790;BME280;7486;51.010;10.366;2023-05-24T09:38:15;98829.72;;;8.61;53.36
14790;BME280;7486;51.010;10.366;2023-05-24T09:41:06;98732.63;;;8.34;53.21
14790;BME280;7486;51.010;10.366;2023-05-24T09:43:51;98867.34;;;9.15;54.69
14790;BME280;7486;51.010;10.366;2023-05-24T09:46:37;98775.38;;;8.82;50.96
14790;BME280;7486;51.010;10.366;2023-05-24T09:49:22;98628.22;;;7.80;50.68
14790;BME280;7486;51.010;10.366;2023-05-24T09:52:12;98762.91;;;8.76;55.43
14790;BME280;7486;51.010;10.366;2023-05-24T09:54:58;98685.66;;;8.73;53.73
14790;BME280;7486;51.010;10.366;2023-05-24T09:57:49;98760.34;;;9.77;48.61
14790;BME280;7486;51.010;10.366;2023-05-24T10:00:39;98852.38;;;10.38;48.83
14790;BME280;7486;51.010;10.366;2023-05-24T10:03:25;98694.63;;;9.38;50.61
14790;BME280;7486;51.010;10.366;2023-05-24T10:06:11;98750.22;;;10.01;50.01
14790;BME280;7486;51.010;10.366;2023-05-24T10:08:57;98775.72;;;10.30;48.74
14790;BME280;7486;51.010;10.366;2023-05-24T10:11:44;98755.22;;;9.54;51.84
14790;BME280;7486;51.010;10.366;2023-05-24T10:14:35;98859.72;;;9.35;49.62
14790;BME280;7486;51.010;10.366;2023-05-24T10:17:20;98861.69;;;9.18;49.75
14790;BME280;7486;51.010;10.366;2023-05-24T10:20:06;98578.75;;;7.44;52.64
14790;BME280;7486;51.010;10.366;2023-05-24T10:22:56;98831.44;;;9.21;50.09
14790;BME280;7486;51.010;10.366;2023-05-24T10:25:49;98772.47;;;8.77;49.45
14790;BME280;7486;51.010;10.366;2023-05-24T10:28:44;98836.75;;;9.50;50.83
14790;BME280;7486;51.010;10.366;2023-05-24T10:31:37;98843.59;;;9.45;51.61
14790;BME280;7486;51.010;10.366;2023-05-24T10:34:24;98809.19;;;9.01;51.70
14790;BME280;7486;51.010;10.366;2023-05-24T10:37:10;98877.09;;;9.30;51.41
14790;BME280;7486;51.010;10.366;2023-05-24T10:39:57;98754.81;;;8.25;53.08
14790;BME280;7486;51.010;10.366;2023-05-24T10:42:43;98795.97;;;8.86;52.23
14790;BME280;7486;51.010;10.366;2023-05-24T10:54:23;98814.34;;;8.65;52.26
14790;BME280;7486;51.010;10.366;2023-05-24T10:57:09;98829.22;;;8.95;54.21
14790;BME280;7486;51.010;10.366;2023-05-24T10:59:55;98834.34;;;8.97;53.08
14790;BME280;7486;51.010;10.366;2023-05-24T11:02:40;98846.03;;;9.17;52.51
14790;BME280;7486;51.010;10.366;2023-05-24T11:05:35;98586.28;;;7.47;50.30
14790;BME280;7486;51.010;10.366;2023-05-24T11:08:34;98886.31;;;9.19;50.30
14790;BME280;7486;51.010;10.366;2023-05-24T11:11:25;98842.50;;;9.39;50.58
14790;BME280;7486;51.010;10.366;2023-05-24T11:14:21;98868.63;;;9.19;51.37
14790;BME280;7486;51.010;10.366;2023-05-24T11:17:07;98784.78;;;8.99;51.42
14790;BME280;7486;51.010;10.366;2023-05-24T11:19:54;98890.25;;;9.82;51.27
14790;BME280;7486;51.010;10.366;2023-05-24T11:22:40;98829.97;;;9.62;50.04
14790;BME280;7486;51.010;10.366;2023-05-24T11:25:26;98880.97;;;10.07;48.75
14790;BME280;7486;51.010;10.366;2023-05-24T11:28:11;98618.94;;;7.84;50.80
14790;BME280;7486;51.010;10.366;2023-05-24T11:31:07;98839.59;;;9.34;52.41
14790;BME280;7486;51.010;10.366;2023-05-24T11:33:52;98822.41;;;9.30;51.21
14790;BME280;7486;51.010;10.366;2023-05-24T11:36:38;98678.69;;;7.91;51.33
14790;BME280;7486;51.010;10.366;2023-05-24T11:39:28;98874.59;;;9.51;52.77
14790;BME280;7486;51.010;10.366;2023-05-24T11:42:13;98640.31;;;8.26;50.28
14790;BME280;7486;51.010;10.366;2023-05-24T11:44:59;98866.97;;;9.77;52.69
14790;BME280;7486;51.010;10.366;2023-05-24T11:47:44;98805.38;;;9.83;51.10
14790;BME280;7486;51.010;10.366;2023-05-24T11:50:30;98613.91;;;9.20;51.64
14790;BME280;7486;51.010;10.366;2023-05-24T11:53:33;98680.53;;;9.16;48.33
14790;BME280;7486;51.010;10.366;2023-05-24T11:56:19;98796.34;;;10.13;49.87
14790;BME280;7486;51.010;10.366;2023-05-24T12:01:56;98836.19;;;10.97;51.75
14790;BME280;7486;51.010;10.366;2023-05-24T12:04:41;98599.06;;;9.90;49.77
14790;BME280;7486;51.010;10.366;2023-05-24T12:07:28;98530.13;;;8.79;47.07
14790;BME280;7486;51.010;10.366;2023-05-24T12:10:14;98845.59;;;10.71;48.15
14790;BME280;7486;51.010;10.366;2023-05-24T12:13:02;98643.81;;;9.85;50.15
14790;BME280;7486;51.010;10.366;2023-05-24T12:15:49;98755.81;;;10.90;47.67
14790;BME280;7486;51.010;10.366;2023-05-24T12:18:39;98753.44;;;11.01;42.33
14790;BME280;7486;51.010;10.366;2023-05-24T12:21:40;98847.72;;;11.51;44.85
14790;BME280;7486;51.010;10.366;2023-05-24T12:24:26;98811.59;;;11.44;44.30
14790;BME280;7486;51.010;10.366;2023-05-24T12:27:11;98676.00;;;10.37;45.09
14790;BME280;7486;51.010;10.366;2023-05-24T12:30:05;98734.59;;;10.90;45.81
14790;BME280;7486;51.010;10.366;2023-05-24T12:32:50;98848.00;;;11.56;45.44
14790;BME280;7486;51.010;10.366;2023-05-24T12:35:39;98856.09;;;11.48;45.81
14790;BME280;7486;51.010;10.366;2023-05-24T12:38:24;98759.56;;;11.02;45.66
14790;BME280;7486;51.010;10.366;2023-05-24T12:41:11;98824.50;;;11.19;45.40
14790;BME280;7486;51.010;10.366;2023-05-24T12:43:58;98744.38;;;10.89;46.21
14790;BME280;7486;51.010;10.366;2023-05-24T12:46:43;98822.88;;;11.18;46.59
14790;BME280;7486;51.010;10.366;2023-05-24T12:49:29;98853.38;;;11.35;46.11
14790;BME280;7486;51.010;10.366;2023-05-24T12:52:15;98720.41;;;10.42;45.25
14790;BME280;7486;51.010;10.366;2023-05-24T12:55:01;98768.41;;;10.81;45.07
14790;BME280;7486;51.010;10.366;2023-05-24T12:57:47;98632.84;;;9.88;46.64
14790;BME280;7486;51.010;10.366;2023-05-24T13:00:32;98784.75;;;10.85;47.17
14790;BME280;7486;51.010;10.366;2023-05-24T13:03:18;98781.16;;;10.99;45.95
14790;BME280;7486;51.010;10.366;2023-05-24T13:06:03;98561.03;;;9.91;47.18
14790;BME280;7486;51.010;10.366;2023-05-24T13:08:49;98739.28;;;11.22;45.17
14790;BME280;7486;51.010;10.366;2023-05-24T13:11:34;98653.69;;;9.76;44.48
14790;BME280;7486;51.010;10.366;2023-05-24T13:14:20;98672.88;;;10.27;43.37
14790;BME280;7486;51.010;10.366;2023-05-24T13:17:06;98754.66;;;10.64;44.97
14790;BME280;7486;51.010;10.366;2023-05-24T13:19:51;98783.63;;;10.72;45.07
14790;BME280;7486;51.010;10.366;2023-05-24T13:22:38;98561.56;;;9.52;45.44
14790;BME280;7486;51.010;10.366;2023-05-24T13:25:23;98696.13;;;10.59;45.15
14790;BME280;7486;51.010;10.366;2023-05-24T13:28:08;98588.00;;;9.80;45.38
14790;BME280;7486;51.010;10.366;2023-05-24T13:30:54;98734.19;;;10.58;45.59
14790;BME280;7486;51.010;10.366;2023-05-24T13:33:41;98592.19;;;9.67;46.15
14790;BME280;7486;51.010;10.366;2023-05-24T13:36:27;98638.66;;;10.04;45.93
14790;BME280;7486;51.010;10.366;2023-05-24T13:39:13;98555.06;;;9.54;46.09
14790;BME280;7486;51.010;10.366;2023-05-24T13:42:01;98821.13;;;11.79;45.82
14790;BME280;7486;51.010;10.366;2023-05-24T13:44:46;98753.31;;;11.16;45.70
14790;BME280;7486;51.010;10.366;2023-05-24T13:47:32;98755.66;;;11.39;45.07
14790;BME280;7486;51.010;10.366;2023-05-24T13:50:24;98749.47;;;11.25;44.47
14790;BME280;7486;51.010;10.366;2023-05-24T13:53:10;98743.25;;;11.05;43.75
14790;BME280;7486;51.010;10.366;2023-05-24T13:55:56;98742.78;;;11.36;44.48
14790;BME280;7486;51.010;10.366;2023-05-24T13:58:41;98726.16;;;11.61;42.09
14790;BME280;7486;51.010;10.366;2023-05-24T14:01:27;98779.72;;;11.85;44.07
14790;BME280;7486;51.010;10.366;2023-05-24T14:04:13;98703.66;;;11.51;43.02
14790;BME280;7486;51.010;10.366;2023-05-24T14:06:58;98814.31;;;12.17;44.08
14790;BME280;7486;51.010;10.366;2023-05-24T14:09:45;98776.88;;;11.99;43.50
14790;BME280;7486;51.010;10.366;2023-05-24T14:12:31;98815.13;;;12.18;43.65
14790;BME280;7486;51.010;10.366;2023-05-24T14:15:17;98493.38;;;10.16;42.53
14790;BME280;7486;51.010;10.366;2023-05-24T14:18:02;98752.38;;;11.97;44.19
14790;BME280;7486;51.010;10.366;2023-05-24T14:20:47;98728.88;;;11.81;43.71
14790;BME280;7486;51.010;10.366;2023-05-24T14:23:33;98666.28;;;11.26;44.36
14790;BME280;7486;51.010;10.366;2023-05-24T14:26:19;98746.81;;;11.79;43.04
14790;BME280;7486;51.010;10.366;2023-05-24T14:29:05;98700.34;;;11.36;45.32
14790;BME280;7486;51.010;10.366;2023-05-24T14:31:50;98760.72;;;11.81;43.11
14790;BME280;7486;51.010;10.366;2023-05-24T14:34:36;98654.53;;;11.01;41.97
14790;BME280;7486;51.010;10.366;2023-05-24T14:37:22;98682.78;;;10.81;42.95
14790;BME280;7486;51.010;10.366;2023-05-24T14:40:08;98812.16;;;11.73;44.48
14790;BME280;7486;51.010;10.366;2023-05-24T14:42:57;98749.44;;;11.59;42.77
14790;BME280;7486;51.010;10.366;2023-05-24T14:45:42;98652.16;;;11.12;42.60
14790;BME280;7486;51.010;10.366;2023-05-24T14:48:28;98666.50;;;11.44;43.39
14790;BME280;7486;51.010;10.366;2023-05-24T14:51:13;98562.34;;;10.42;43.56
14790;BME280;7486;51.010;10.366;2023-05-24T14:54:00;98749.63;;;11.64;44.23
14790;BME280;7486;51.010;10.366;2023-05-24T14:56:46;98777.94;;;12.05;44.77
14790;BME280;7486;51.010;10.366;2023-05-24T14:59:31;98749.75;;;12.23;42.68
14790;BME280;7486;51.010;10.366;2023-05-24T15:02:17;98672.09;;;11.62;43.50
14790;BME280;7486;51.010;10.366;2023-05-24T15:05:04;98649.66;;;11.91;41.62
14790;BME280;7486;51.010;10.366;2023-05-24T15:07:49;98793.47;;;12.34;43.13
14790;BME280;7486;51.010;10.366;2023-05-24T15:10:35;98612.81;;;10.68;45.35
14790;BME280;7486;51.010;10.366;2023-05-24T15:13:21;98816.78;;;12.19;46.22
14790;BME280;7486;51.010;10.366;2023-05-24T15:16:08;98814.38;;;12.63;47.88